createdAt,value
2024-04-24T00:02:16.818Z,94.5
2024-04-24T00:04:42.059Z,94.2
2024-04-24T00:07:08.743Z,94.4
2024-04-24T00:09:35.435Z,94.7
2024-04-24T00:12:02.114Z,94.8
2024-04-24T00:14:28.799Z,94.8
2024-04-24T00:16:55.484Z,94.9
2024-04-24T00:19:22.175Z,95
2024-04-24T00:21:48.847Z,94.9
2024-04-24T00:24:15.547Z,94.9
2024-04-24T00:26:42.219Z,95.1
2024-04-24T00:31:35.580Z,94.8
2024-04-24T00:34:02.273Z,95.1
2024-04-24T00:36:27.484Z,95.3
2024-04-24T00:38:54.181Z,95.5
2024-04-24T00:41:20.866Z,95.5
2024-04-24T00:43:47.558Z,95.4
2024-04-24T00:46:14.231Z,95.3
2024-04-24T00:48:40.907Z,95.3
2024-04-24T00:51:07.593Z,95
2024-04-24T00:53:34.278Z,95.3
2024-04-24T00:56:00.968Z,95.9
2024-04-24T00:58:27.645Z,96.1
2024-04-24T01:00:54.340Z,96.5
2024-04-24T01:03:21.013Z,96.6
2024-04-24T01:05:47.696Z,96.7
2024-04-24T01:08:13.042Z,96.8
2024-04-24T01:10:39.657Z,96.7
2024-04-24T01:13:06.304Z,96.7
2024-04-24T01:15:32.990Z,96.4
2024-04-24T01:17:59.669Z,96.7
2024-04-24T01:20:26.343Z,96.7
2024-04-24T01:22:53.049Z,96.5
2024-04-24T01:25:19.729Z,96.8
2024-04-24T01:27:46.426Z,97.1
2024-04-24T01:30:13.094Z,97.2
2024-04-24T01:32:39.786Z,97.1
2024-04-24T01:35:06.468Z,97.2
2024-04-24T01:37:33.193Z,97.2
2024-04-24T01:39:58.384Z,97.1
2024-04-24T01:42:25.078Z,97.2
2024-04-24T01:44:51.756Z,97.1
2024-04-24T01:47:18.451Z,97.1
2024-04-24T01:49:45.127Z,97.3
2024-04-24T01:52:11.815Z,97.2
2024-04-24T01:54:38.511Z,97.4
2024-04-24T01:57:05.192Z,97.5
2024-04-24T01:59:31.882Z,97.5
2024-04-24T02:01:58.551Z,97.5
2024-04-24T02:04:25.244Z,97.8
2024-04-24T02:06:51.927Z,97.8
2024-04-24T02:09:18.605Z,98
2024-04-24T02:11:45.333Z,98.2
2024-04-24T02:14:10.536Z,98.3
2024-04-24T02:16:37.215Z,98.2
2024-04-24T02:19:03.895Z,98.1
2024-04-24T02:21:30.593Z,97.9
2024-04-24T02:23:57.258Z,97.8
2024-04-24T02:26:23.956Z,97.8
2024-04-24T02:28:50.651Z,97.8
2024-04-24T02:31:17.317Z,97.8
2024-04-24T02:33:43.995Z,97.8
2024-04-24T02:36:10.695Z,97.8
2024-04-24T02:38:37.364Z,97.7
2024-04-24T02:43:31.065Z,97.3
2024-04-24T02:45:55.966Z,97.1
2024-04-24T02:48:22.654Z,97.4
2024-04-24T02:50:49.350Z,97.3
2024-04-24T02:53:16.035Z,97.1
2024-04-24T02:55:42.723Z,97
2024-04-24T02:58:09.403Z,96.8
2024-04-24T03:00:36.091Z,96.7
2024-04-24T03:03:02.788Z,96.9
2024-04-24T03:05:29.465Z,96.7
2024-04-24T03:07:56.144Z,96.6
2024-04-24T03:12:49.509Z,96.6
2024-04-24T03:15:16.205Z,96.5
2024-04-24T03:17:41.424Z,96.6
2024-04-24T03:20:07.237Z,96.6
2024-04-24T03:22:33.897Z,96.6
2024-04-24T03:25:00.581Z,96.5
2024-04-24T03:27:27.252Z,96.6
2024-04-24T03:29:53.935Z,96.5
2024-04-24T03:32:20.616Z,96.8
2024-04-24T03:34:47.309Z,96.8
2024-04-24T03:37:13.992Z,96.9
2024-04-24T03:39:40.689Z,97.1
2024-04-24T03:42:07.365Z,97
2024-04-24T03:44:34.057Z,97
2024-04-24T03:46:59.739Z,97.4
2024-04-24T03:49:24.969Z,97.6
2024-04-24T03:51:51.651Z,97.8
2024-04-24T03:54:18.396Z,98
2024-04-24T03:56:45.023Z,97.9
2024-04-24T03:59:11.737Z,97.9
2024-04-24T04:01:38.411Z,97.8
2024-04-24T04:04:05.111Z,97.6
2024-04-24T04:06:31.770Z,97.4
2024-04-24T04:08:58.464Z,97.4
2024-04-24T04:11:25.139Z,97.5
2024-04-24T04:13:52.166Z,97.4
2024-04-24T04:16:18.513Z,97.6
2024-04-24T04:18:45.209Z,97.5
2024-04-24T04:21:10.420Z,97.5
2024-04-24T04:23:37.100Z,97.5
2024-04-24T04:26:03.797Z,97.7
2024-04-24T04:28:30.499Z,97.8
2024-04-24T04:30:57.158Z,97.9
2024-04-24T04:33:23.862Z,97.9
2024-04-24T04:35:50.534Z,97.9
2024-04-24T04:38:17.221Z,97.9
2024-04-24T04:40:43.901Z,97.8
2024-04-24T04:43:10.578Z,97.7
2024-04-24T04:45:37.276Z,97.7
2024-04-24T04:48:03.959Z,97.8
2024-04-24T04:50:30.640Z,97.7
2024-04-24T04:52:55.859Z,97.7
2024-04-24T04:55:22.547Z,97.7
2024-04-24T04:57:49.245Z,97.4
2024-04-24T05:00:15.918Z,97.2
2024-04-24T05:02:42.616Z,97.1
2024-04-24T05:05:09.294Z,96.8
2024-04-24T05:07:35.988Z,96.4
2024-04-24T05:10:02.666Z,96.2
2024-04-24T05:12:29.348Z,95.9
2024-04-24T05:14:56.023Z,95.7
2024-04-24T05:17:22.710Z,95.4
2024-04-24T05:19:49.407Z,95
2024-04-24T05:22:16.087Z,95
2024-04-24T05:24:41.322Z,94.9
2024-04-24T05:27:07.999Z,95
2024-04-24T05:29:34.674Z,94.6
2024-04-24T05:32:01.355Z,94.4
2024-04-24T05:34:26.606Z,93.9
2024-04-24T05:36:53.318Z,93.5
2024-04-24T05:39:19.964Z,92.8
2024-04-24T05:41:46.669Z,92.3
2024-04-24T05:44:13.351Z,92.1
2024-04-24T05:46:40.034Z,91.9
2024-04-24T05:49:06.742Z,90.8
2024-04-24T05:51:33.412Z,89.6
2024-04-24T05:54:00.086Z,88.8
2024-04-24T05:56:26.765Z,86.6
2024-04-24T05:58:53.467Z,86.2
2024-04-24T06:01:20.148Z,85.7
2024-04-24T06:03:46.839Z,85.3
2024-04-24T06:06:13.522Z,85.4
2024-04-24T06:08:38.749Z,84.8
2024-04-24T06:11:05.431Z,85.2
2024-04-24T06:13:32.135Z,84.3
2024-04-24T06:15:58.888Z,84.4
2024-04-24T06:18:25.489Z,83.8
2024-04-24T06:20:52.183Z,82.7
2024-04-24T06:23:18.870Z,81.9
2024-04-24T06:25:45.543Z,80.1
2024-04-24T06:28:11.383Z,77.6
2024-04-24T06:30:38.082Z,77.1
2024-04-24T06:33:04.772Z,75.2
2024-04-24T06:35:31.458Z,73.6
2024-04-24T06:37:58.133Z,69.9
2024-04-24T06:40:24.821Z,69.1
2024-04-24T06:42:50.058Z,68.9
2024-04-24T06:45:16.821Z,66.9
2024-04-24T06:47:43.455Z,62.6
2024-04-24T06:52:36.801Z,57.8
2024-04-24T06:55:03.479Z,55.3
2024-04-24T06:57:30.166Z,54.4
2024-04-24T06:59:56.860Z,54
2024-04-24T07:02:23.521Z,54.6
2024-04-24T07:04:50.233Z,55.4
2024-04-24T07:07:16.907Z,57.8
2024-04-24T07:09:43.598Z,59.2
2024-04-24T07:12:10.266Z,60.8
2024-04-24T07:14:36.966Z,59.3
2024-04-24T07:17:02.183Z,52.4
2024-04-24T07:19:28.876Z,47.1
2024-04-24T07:21:55.576Z,42.9
2024-04-24T07:24:22.243Z,39.2
2024-04-24T07:26:48.932Z,38.3
2024-04-24T07:29:15.602Z,39.3
2024-04-24T07:31:42.295Z,41.9
2024-04-24T07:34:08.979Z,45.7
2024-04-24T07:36:35.658Z,48.4
2024-04-24T07:39:02.345Z,47.7
2024-04-24T07:41:29.036Z,52.3
2024-04-24T07:43:55.720Z,51.4
2024-04-24T07:46:22.402Z,51.8
2024-04-24T07:48:49.094Z,55.8
2024-04-24T07:51:14.302Z,58
2024-04-24T07:53:40.971Z,60.1
2024-04-24T07:56:07.660Z,60.6
2024-04-24T07:58:34.375Z,61
2024-04-24T08:01:01.043Z,61.6
2024-04-24T08:03:27.749Z,60.5
2024-04-24T08:05:54.411Z,60.7
2024-04-24T08:08:21.093Z,58.8
2024-04-24T08:10:47.783Z,60
2024-04-24T08:13:14.463Z,60.6
2024-04-24T08:15:41.158Z,62.8
2024-04-24T08:18:08.188Z,62.5
2024-04-24T08:20:34.527Z,62.9
2024-04-24T08:22:59.744Z,65.1
2024-04-24T08:25:26.433Z,64.6
2024-04-24T08:27:53.126Z,65.5
2024-04-24T08:30:19.818Z,66.9
2024-04-24T08:32:46.498Z,69
2024-04-24T08:35:13.195Z,69
2024-04-24T08:37:39.845Z,68.5
2024-04-24T08:40:06.548Z,68.3
2024-04-24T08:42:33.221Z,69
2024-04-24T08:44:59.908Z,68.1
2024-04-24T08:47:26.622Z,67.6
2024-04-24T08:49:53.281Z,66.7
2024-04-24T08:52:19.969Z,67.3
2024-04-24T08:54:45.196Z,67.2
2024-04-24T08:57:11.891Z,67
2024-04-24T08:59:38.560Z,65.2
2024-04-24T09:02:05.241Z,65.2
2024-04-24T09:04:31.945Z,66.3
2024-04-24T09:06:58.604Z,65.8
2024-04-24T09:09:25.301Z,66.7
2024-04-24T09:11:51.988Z,66.1
2024-04-24T09:14:18.669Z,65.2
2024-04-24T09:16:45.337Z,64.9
2024-04-24T09:19:12.043Z,65.5
2024-04-24T09:21:38.723Z,65.2
2024-04-24T09:24:05.413Z,64.5
2024-04-24T09:26:30.619Z,64
2024-04-24T09:28:57.317Z,63.4
2024-04-24T09:31:24.031Z,63.5
2024-04-24T09:33:50.698Z,62.5
2024-04-24T09:36:17.372Z,63.7
2024-04-24T09:38:44.053Z,62.5
2024-04-24T09:41:10.743Z,62.5
2024-04-24T09:43:37.421Z,63.5
2024-04-24T09:46:04.125Z,63.7
2024-04-24T09:48:30.788Z,62.6
2024-04-24T09:50:57.478Z,61.6
2024-04-24T09:53:24.237Z,63.9
2024-04-24T09:55:51.137Z,61.6
2024-04-24T09:58:17.548Z,61.9
2024-04-24T10:00:44.220Z,63.8
2024-04-24T10:03:09.428Z,64.7
2024-04-24T10:05:36.124Z,64.3
2024-04-24T10:08:02.810Z,65.9
2024-04-24T10:10:29.485Z,65.7
2024-04-24T10:12:56.178Z,68.5
2024-04-24T10:15:22.862Z,68.7
2024-04-24T10:17:49.565Z,71.8
2024-04-24T10:22:42.913Z,73.4
2024-04-24T10:25:09.600Z,76.2
2024-04-24T10:27:36.283Z,76
2024-04-24T10:30:03.022Z,76.6
2024-04-24T10:32:29.650Z,77.1
2024-04-24T10:34:56.329Z,79.3
2024-04-24T10:37:21.554Z,79.7
2024-04-24T10:39:48.236Z,82.1
2024-04-24T10:42:14.910Z,81.6
2024-04-24T10:44:41.608Z,82
2024-04-24T10:47:08.301Z,82.3
2024-04-24T10:49:34.981Z,81.5
2024-04-24T10:52:01.667Z,80.5
2024-04-24T10:54:28.419Z,79.8
2024-04-24T10:56:55.019Z,80.8
2024-04-24T10:59:21.718Z,81.2
2024-04-24T11:01:48.401Z,80.7
2024-04-24T11:04:15.087Z,79
2024-04-24T11:06:41.768Z,80.2
2024-04-24T11:09:08.464Z,81.1
2024-04-24T11:11:35.143Z,82.4
2024-04-24T11:14:00.389Z,82
2024-04-24T11:16:27.046Z,82.4
2024-04-24T11:18:53.739Z,81.7
2024-04-24T11:21:20.417Z,81.6
2024-04-24T11:23:47.159Z,82.2
2024-04-24T11:26:13.806Z,80.8
2024-04-24T11:28:40.497Z,82.8
2024-04-24T11:31:07.156Z,82
2024-04-24T11:33:33.844Z,80.9
2024-04-24T11:36:00.520Z,82.5
2024-04-24T11:38:27.221Z,81.6
2024-04-24T11:40:53.889Z,82
2024-04-24T11:43:20.601Z,80.7
2024-04-24T11:45:45.803Z,80.2
2024-04-24T11:48:12.492Z,83
2024-04-24T11:50:39.171Z,84.1
2024-04-24T11:53:05.846Z,83.6
2024-04-24T11:55:32.537Z,83.7
2024-04-24T11:57:59.261Z,83.8
2024-04-24T12:00:25.923Z,82.7
2024-04-24T12:02:52.580Z,82.6
2024-04-24T12:05:19.316Z,83.4
2024-04-24T12:07:45.965Z,84.3
2024-04-24T12:10:12.643Z,84.8
2024-04-24T12:12:39.333Z,85.9
2024-04-24T12:15:06.018Z,85.5
2024-04-24T12:17:31.247Z,86.4
2024-04-24T12:19:57.938Z,84.3
2024-04-24T12:22:25.039Z,83.6
2024-04-24T12:24:51.301Z,84.5
2024-04-24T12:27:17.971Z,81.5
2024-04-24T12:29:44.654Z,83.6
2024-04-24T12:32:11.361Z,81.5
2024-04-24T12:34:38.072Z,79.9
2024-04-24T12:37:04.719Z,78
2024-04-24T12:39:31.411Z,79.8
2024-04-24T12:41:58.083Z,78.4
2024-04-24T12:44:24.782Z,78.8
2024-04-24T12:46:51.458Z,77.7
2024-04-24T12:49:16.695Z,75.2
2024-04-24T12:51:43.387Z,78.7
2024-04-24T12:54:10.051Z,77.9
2024-04-24T12:56:36.738Z,76.2
2024-04-24T12:59:03.414Z,75.7
2024-04-24T13:01:30.100Z,75
2024-04-24T13:03:56.779Z,76.3
2024-04-24T13:06:23.473Z,73.8
2024-04-24T13:08:50.140Z,75.5
2024-04-24T13:11:16.844Z,73
2024-04-24T13:13:43.195Z,72.8
2024-04-24T13:16:09.886Z,73.5
2024-04-24T13:18:36.559Z,72.5
2024-04-24T13:21:03.278Z,74.9
2024-04-24T13:23:28.499Z,73
2024-04-24T13:28:21.858Z,70.4
2024-04-24T13:30:48.539Z,75.5
2024-04-24T13:33:15.238Z,75.7
2024-04-24T13:35:41.920Z,75.3
2024-04-24T13:38:08.590Z,73.4
2024-04-24T13:40:35.294Z,72.5
2024-04-24T13:43:01.974Z,75.7
2024-04-24T13:45:27.205Z,74.2
2024-04-24T13:47:53.887Z,76.6
2024-04-24T13:50:20.583Z,79
2024-04-24T13:52:47.247Z,76
2024-04-24T13:55:13.937Z,76.9
2024-04-24T13:57:40.625Z,77.1
2024-04-24T14:00:07.308Z,79.5
2024-04-24T14:02:33.991Z,79.8
2024-04-24T14:05:00.661Z,78.5
2024-04-24T14:07:27.366Z,82.2
2024-04-24T14:09:54.067Z,82.5
2024-04-24T14:12:20.745Z,84.9
2024-04-24T14:14:47.419Z,85
2024-04-24T14:17:12.649Z,86.1
2024-04-24T14:19:39.317Z,86.8
2024-04-24T14:22:06.017Z,87.7
2024-04-24T14:24:32.708Z,89
2024-04-24T14:26:59.386Z,89.7
2024-04-24T14:29:26.057Z,90.5
2024-04-24T14:31:52.760Z,89.8
2024-04-24T14:34:19.424Z,90.6
2024-04-24T14:36:46.116Z,90.3
2024-04-24T14:39:12.804Z,87.4
2024-04-24T14:41:39.754Z,86.5
2024-04-24T14:44:05.432Z,84.5
2024-04-24T14:46:32.124Z,85.8
2024-04-24T14:48:57.351Z,85.3
2024-04-24T14:51:24.055Z,83.7
2024-04-24T14:53:50.709Z,81.8
2024-04-24T14:56:17.424Z,81.6
2024-04-24T14:58:44.083Z,82.8
2024-04-24T15:01:10.760Z,81.5
2024-04-24T15:03:37.446Z,79.1
2024-04-24T15:06:04.122Z,79.5
2024-04-24T15:08:30.820Z,80.6
2024-04-24T15:10:57.498Z,81.5
2024-04-24T15:13:24.177Z,81
2024-04-24T15:15:50.863Z,80.8
2024-04-24T15:18:17.577Z,80.8
2024-04-24T15:20:42.777Z,80.3
2024-04-24T15:23:09.461Z,77.7
2024-04-24T15:25:36.211Z,77.7
2024-04-24T15:28:02.830Z,78.2
2024-04-24T15:30:29.516Z,77.8
2024-04-24T15:32:56.195Z,76.3
2024-04-24T15:35:23.106Z,77.5
2024-04-24T15:37:49.565Z,78.6
2024-04-24T15:40:16.248Z,79.6
2024-04-24T15:42:42.953Z,77.5
2024-04-24T15:45:09.642Z,78.6
2024-04-24T15:47:36.362Z,79.3
2024-04-24T15:50:02.993Z,78.4
2024-04-24T15:52:29.679Z,79
2024-04-24T15:54:54.915Z,79.6
2024-04-24T15:57:21.599Z,78.5
2024-04-24T15:59:48.288Z,77.8
2024-04-24T16:02:15.069Z,77.5
2024-04-24T16:04:41.658Z,76.9
2024-04-24T16:07:08.340Z,76.7
2024-04-24T16:09:35.013Z,77.3
2024-04-24T16:12:01.713Z,77.3
2024-04-24T16:14:28.376Z,77.8
2024-04-24T16:16:55.140Z,78
2024-04-24T16:19:21.750Z,76.5
2024-04-24T16:21:48.590Z,79.6
2024-04-24T16:24:15.156Z,77
2024-04-24T16:26:42.235Z,79.4
2024-04-24T16:29:07.034Z,81.2
2024-04-24T16:31:33.744Z,82.8
2024-04-24T16:34:00.415Z,84.9
2024-04-24T16:38:53.767Z,88.5
2024-04-24T16:41:20.466Z,89.3
2024-04-24T16:43:46.233Z,89.5
2024-04-24T16:46:12.876Z,89.2
2024-04-24T16:48:39.529Z,90.1
2024-04-24T16:51:06.198Z,89.5
2024-04-24T16:53:32.908Z,88.6
2024-04-24T16:55:59.586Z,89
2024-04-24T16:58:26.260Z,88.8
2024-04-24T17:00:51.485Z,89.4
2024-04-24T17:03:18.255Z,89
2024-04-24T17:05:44.871Z,89.6
2024-04-24T17:08:11.558Z,90.8
2024-04-24T17:10:38.237Z,91.4
2024-04-24T17:13:04.914Z,91.2
2024-04-24T17:15:31.624Z,91.5
2024-04-24T17:17:58.291Z,92.3
2024-04-24T17:20:24.981Z,90.9
2024-04-24T17:22:51.658Z,90.9
2024-04-24T17:25:18.345Z,90.9
2024-04-24T17:27:45.041Z,91
2024-04-24T17:30:11.703Z,90.4
2024-04-24T17:32:36.941Z,90.2
2024-04-24T17:35:03.636Z,90.1
2024-04-24T17:37:30.311Z,87.7
2024-04-24T17:39:56.996Z,88.4
2024-04-24T17:42:23.708Z,88.2
2024-04-24T17:44:50.379Z,88.7
2024-04-24T17:47:17.072Z,89.5
2024-04-24T17:49:43.828Z,88.6
2024-04-24T17:52:10.424Z,89.2
2024-04-24T17:54:37.095Z,89
2024-04-24T17:57:03.792Z,89.2
2024-04-24T17:59:30.469Z,89.2
2024-04-24T18:01:57.158Z,88
2024-04-24T18:04:23.854Z,88.4
2024-04-24T18:06:49.056Z,89.4
2024-04-24T18:09:15.992Z,89.5
2024-04-24T18:11:42.431Z,89.8
2024-04-24T18:14:09.137Z,90.3
2024-04-24T18:16:35.839Z,91.2
2024-04-24T18:19:02.484Z,91.8
2024-04-24T18:21:29.159Z,92.4
2024-04-24T18:23:55.836Z,92.4
2024-04-24T18:26:22.544Z,92.8
2024-04-24T18:28:49.234Z,93.2
2024-04-24T18:31:15.922Z,93.6
2024-04-24T18:33:42.606Z,93.9
2024-04-24T18:36:09.278Z,94.1
2024-04-24T18:38:35.961Z,94.3
2024-04-24T18:41:01.372Z,94.3
2024-04-24T18:43:27.887Z,94.1
2024-04-24T18:45:54.568Z,94.4
2024-04-24T18:48:21.258Z,94.6
2024-04-24T18:50:47.932Z,94.6
2024-04-24T18:53:14.620Z,94.4
2024-04-24T18:55:41.295Z,94.4
2024-04-24T18:58:07.989Z,94.5
2024-04-24T19:00:34.664Z,94.6
2024-04-24T19:03:01.372Z,94.3
2024-04-24T19:05:28.047Z,94.6
2024-04-24T19:07:54.746Z,94.7
2024-04-24T19:10:21.410Z,94.7
2024-04-24T19:12:48.100Z,94.7
2024-04-24T19:15:13.303Z,95
2024-04-24T19:20:06.693Z,95.6
2024-04-24T19:22:33.363Z,95.7
2024-04-24T19:25:00.047Z,95.8
2024-04-24T19:27:26.734Z,95.8
2024-04-24T19:29:53.407Z,96.2
2024-04-24T19:34:46.786Z,96.3
2024-04-24T19:37:13.472Z,96.2
2024-04-24T19:39:40.163Z,96.2
2024-04-24T19:42:06.852Z,96.1
2024-04-24T19:44:33.520Z,96.2
2024-04-24T19:46:58.788Z,95.9
2024-04-24T19:49:25.450Z,96.1
2024-04-24T19:51:52.129Z,96.3
2024-04-24T19:54:18.848Z,96.7
2024-04-24T19:56:45.541Z,96.7
2024-04-24T19:59:12.190Z,96.3
2024-04-24T20:01:38.886Z,95.8
2024-04-24T20:04:05.544Z,95.5
2024-04-24T20:06:32.250Z,95.6
2024-04-24T20:08:58.920Z,95.7
2024-04-24T20:11:25.636Z,95.9
2024-04-24T20:13:52.288Z,96
2024-04-24T20:16:19.005Z,96.1
2024-04-24T20:18:44.188Z,95.9
2024-04-24T20:21:10.878Z,95.6
2024-04-24T20:23:37.565Z,95.5
2024-04-24T20:26:04.265Z,95.4
2024-04-24T20:28:31.137Z,95.2
2024-04-24T20:30:57.625Z,95.1
2024-04-24T20:33:24.310Z,94.7
2024-04-24T20:35:51.000Z,94.7
2024-04-24T20:38:17.677Z,94.7
2024-04-24T20:40:44.476Z,94.5
2024-04-24T20:43:11.041Z,94.4
2024-04-24T20:45:37.732Z,94.2
2024-04-24T20:48:04.477Z,94.6
2024-04-24T20:50:29.649Z,94.6
2024-04-24T20:52:56.334Z,94.9
2024-04-24T20:55:23.025Z,94.4
2024-04-24T20:57:49.693Z,94.7
2024-04-24T21:00:16.425Z,95.3
2024-04-24T21:02:43.071Z,95.9
2024-04-24T21:05:09.757Z,96.1
2024-04-24T21:07:36.450Z,96.5
2024-04-24T21:10:03.104Z,96.6
2024-04-24T21:12:29.806Z,96.6
2024-04-24T21:14:56.497Z,96.6
2024-04-24T21:17:23.165Z,96.6
2024-04-24T21:19:49.864Z,96.7
2024-04-24T21:22:15.080Z,96.7
2024-04-24T21:24:41.753Z,96.5
2024-04-24T21:27:08.447Z,96.4
2024-04-24T21:29:35.141Z,96.3
2024-04-24T21:32:01.842Z,96.2
2024-04-24T21:34:28.515Z,96.6
2024-04-24T21:36:55.195Z,96.7
2024-04-24T21:39:21.897Z,97
2024-04-24T21:41:48.553Z,97.4
2024-04-24T21:44:15.256Z,97.6
2024-04-24T21:46:41.923Z,97.7
2024-04-24T21:49:08.615Z,98
2024-04-24T21:51:35.321Z,98.2
2024-04-24T21:54:00.528Z,98.4
2024-04-24T21:56:25.875Z,98.5
2024-04-24T21:58:52.476Z,98.6
2024-04-24T22:01:19.143Z,98.7
2024-04-24T22:03:45.829Z,98.8
2024-04-24T22:06:12.534Z,98.7
2024-04-24T22:08:39.194Z,98.6
2024-04-24T22:11:05.898Z,98.6
2024-04-24T22:13:32.568Z,98.6
2024-04-24T22:15:59.280Z,98.5
2024-04-24T22:18:25.933Z,98.5
2024-04-24T22:20:52.625Z,98.4
2024-04-24T22:23:19.315Z,98.3
2024-04-24T22:25:46.013Z,98.2
2024-04-24T22:28:11.232Z,98.2
2024-04-24T22:30:37.904Z,98.5
2024-04-24T22:33:04.595Z,98.6
2024-04-24T22:35:31.271Z,98.5
2024-04-24T22:37:57.970Z,98.5
2024-04-24T22:40:24.690Z,98.5
2024-04-24T22:42:51.339Z,98.6
2024-04-24T22:45:18.058Z,98.4
2024-04-24T22:47:44.701Z,98.3
2024-04-24T22:50:11.413Z,98
2024-04-24T22:52:38.097Z,97.5
2024-04-24T22:55:04.780Z,97
2024-04-24T22:57:31.469Z,96.4
2024-04-24T22:59:56.675Z,95.9
2024-04-24T23:02:23.354Z,95.4
2024-04-24T23:04:50.092Z,95.1
2024-04-24T23:07:16.727Z,94.8
2024-04-24T23:09:43.438Z,94.5
2024-04-24T23:12:10.107Z,94.5
2024-04-24T23:14:36.786Z,95
2024-04-24T23:17:03.481Z,94.8
2024-04-24T23:19:30.164Z,94.8
2024-04-24T23:21:56.836Z,94.9
2024-04-24T23:24:23.563Z,94.9
2024-04-24T23:26:50.224Z,94.9
2024-04-24T23:29:16.911Z,95
2024-04-24T23:31:42.142Z,95
2024-04-24T23:34:08.813Z,95.1
2024-04-24T23:36:35.511Z,94.9
2024-04-24T23:39:02.185Z,94.7
2024-04-24T23:41:28.880Z,94.7
2024-04-24T23:43:55.554Z,94.8
2024-04-24T23:46:22.292Z,94.8
2024-04-24T23:48:48.933Z,95.2
2024-04-24T23:51:15.619Z,95.4
2024-04-24T23:53:42.297Z,95.6
2024-04-24T23:56:08.996Z,95.5
2024-04-24T23:58:35.671Z,95.6
